createdAt,value
2022-08-11T00:02:37.209Z,19.20
2022-08-11T00:06:39.788Z,19.20
2022-08-11T00:10:41.524Z,19.20
2022-08-11T00:14:43.995Z,19.10
2022-08-11T00:18:47.222Z,18.80
2022-08-11T00:22:50.097Z,18.80
2022-08-11T00:26:52.885Z,18.80
2022-08-11T00:30:55.750Z,18.60
2022-08-11T00:35:51.692Z,18.70
2022-08-11T00:39:27.274Z,18.60
2022-08-11T00:43:49.686Z,18.70
2022-08-11T00:47:56.675Z,18.70
2022-08-11T00:52:04.788Z,18.70
2022-08-11T00:56:26.755Z,18.60
2022-08-11T01:00:33.627Z,18.50
2022-08-11T01:04:38.906Z,18.30
2022-08-11T01:08:40.595Z,18.20
2022-08-11T01:12:42.397Z,18.20
2022-08-11T01:16:47.103Z,18.30
2022-08-11T01:21:07.810Z,18.10
2022-08-11T01:25:28.350Z,18.10
2022-08-11T01:29:49.496Z,17.80
2022-08-11T01:33:57.311Z,17.70
2022-08-11T01:37:59.277Z,17.60
2022-08-11T01:42:19.319Z,17.50
2022-08-11T01:46:30.101Z,17.50
2022-08-11T01:50:51.482Z,17.30
2022-08-11T01:54:59.621Z,17.40
2022-08-11T01:59:15.878Z,17.10
2022-08-11T02:03:27.280Z,17.30
2022-08-11T02:07:52.459Z,17.40
2022-08-11T02:11:59.793Z,17.30
2022-08-11T02:16:10.707Z,17.10
2022-08-11T02:20:55.931Z,17.00
2022-08-11T02:25:02.918Z,16.90
2022-08-11T02:29:10.664Z,16.90
2022-08-11T02:33:24.567Z,16.90
2022-08-11T02:37:37.308Z,16.80
2022-08-11T02:42:32.742Z,17.10
2022-08-11T02:46:37.763Z,16.80
2022-08-11T02:50:49.451Z,16.80
2022-08-11T02:55:13.328Z,16.60
2022-08-11T02:59:51.271Z,16.80
2022-08-11T03:04:13.452Z,16.40
2022-08-11T03:08:34.216Z,16.30
2022-08-11T03:13:21.038Z,16.50
2022-08-11T03:17:30.834Z,16.20
2022-08-11T03:21:52.443Z,16.20
2022-08-11T03:26:12.868Z,16.20
2022-08-11T03:30:27.500Z,16.30
2022-08-11T03:34:31.096Z,16.40
2022-08-11T03:38:44.145Z,16.10
2022-08-11T03:43:02.893Z,16.10
2022-08-11T03:47:23.735Z,16.20
2022-08-11T03:51:44.926Z,16.00
2022-08-11T03:56:20.198Z,16.10
2022-08-11T04:00:27.992Z,16.20
2022-08-11T04:04:29.608Z,16.00
2022-08-11T04:08:50.385Z,16.00
2022-08-11T04:13:11.486Z,15.90
2022-08-11T04:17:39.132Z,15.90
2022-08-11T04:21:59.683Z,15.60
2022-08-11T04:26:11.665Z,15.60
2022-08-11T04:30:28.162Z,15.50
2022-08-11T04:34:50.894Z,15.60
2022-08-11T04:39:20.463Z,15.80
2022-08-11T04:43:28.603Z,15.60
2022-08-11T04:48:08.443Z,15.80
2022-08-11T04:52:37.644Z,15.80
2022-08-11T04:56:59.141Z,16.10
2022-08-11T05:01:19.666Z,16.00
2022-08-11T05:05:33.771Z,16.20
2022-08-11T05:09:57.569Z,16.30
2022-08-11T05:14:32.020Z,16.50
2022-08-11T05:18:52.664Z,16.70
2022-08-11T05:23:13.268Z,16.80
2022-08-11T05:27:34.932Z,16.90
2022-08-11T05:31:56.981Z,17.20
2022-08-11T05:36:17.794Z,17.10
2022-08-11T05:40:38.314Z,17.40
2022-08-11T05:44:58.571Z,17.70
2022-08-11T05:49:18.912Z,17.80
2022-08-11T05:53:46.309Z,18.10
2022-08-11T05:57:51.245Z,18.50
2022-08-11T06:02:00.872Z,18.70
2022-08-11T06:06:08.435Z,19.20
2022-08-11T06:10:10.879Z,19.20
2022-08-11T06:14:16.327Z,19.40
2022-08-11T06:18:19.036Z,19.50
2022-08-11T06:22:24.513Z,19.30
2022-08-11T06:26:27.036Z,19.30
2022-08-11T06:30:35.234Z,19.30
2022-08-11T06:34:41.351Z,19.60
2022-08-11T06:39:02.671Z,19.90
2022-08-11T06:43:20.445Z,20.10
2022-08-11T06:47:22.183Z,21.00
2022-08-11T06:51:23.902Z,21.30
2022-08-11T06:55:56.696Z,21.30
2022-08-11T07:00:19.852Z,22.10
2022-08-11T07:04:28.047Z,22.30
2022-08-11T07:08:57.740Z,22.70
2022-08-11T07:13:39.390Z,23.00
2022-08-11T07:17:49.999Z,23.50
2022-08-11T07:22:11.064Z,23.50
2022-08-11T07:26:32.226Z,23.50
2022-08-11T07:30:37.680Z,23.80
2022-08-11T07:34:40.846Z,24.00
2022-08-11T07:38:52.715Z,24.10
2022-08-11T07:42:55.662Z,24.30
2022-08-11T07:47:16.046Z,24.40
2022-08-11T07:51:38.255Z,24.30
2022-08-11T07:55:50.857Z,23.90
2022-08-11T08:00:13.022Z,24.10
2022-08-11T08:04:37.229Z,24.30
2022-08-11T08:08:58.843Z,24.50
2022-08-11T08:13:20.787Z,24.40
2022-08-11T08:17:42.146Z,25.20
2022-08-11T08:21:46.196Z,25.40
2022-08-11T08:25:47.925Z,25.60
2022-08-11T08:30:08.257Z,26.00
2022-08-11T08:34:10.583Z,26.00
2022-08-11T08:38:13.549Z,26.20
2022-08-11T08:42:18.634Z,26.00
2022-08-11T08:46:27.862Z,26.70
2022-08-11T08:50:52.314Z,27.10
2022-08-11T08:54:58.271Z,27.20
2022-08-11T08:59:02.050Z,27.30
2022-08-11T09:03:22.824Z,27.50
2022-08-11T09:07:26.851Z,27.80
2022-08-11T09:11:50.487Z,27.80
2022-08-11T09:15:56.270Z,27.70
2022-08-11T09:20:00.457Z,27.70
2022-08-11T09:24:26.159Z,27.80
2022-08-11T09:28:30.887Z,27.90
2022-08-11T09:32:34.068Z,28.00
2022-08-11T09:36:54.491Z,28.30
2022-08-11T09:40:57.196Z,28.20
2022-08-11T09:45:00.954Z,28.10
2022-08-11T09:49:04.458Z,28.20
2022-08-11T09:53:36.356Z,28.10
2022-08-11T09:57:47.872Z,27.90
2022-08-11T10:01:52.486Z,28.20
2022-08-11T10:06:18.073Z,28.20
2022-08-11T10:10:24.236Z,28.10
2022-08-11T10:14:48.631Z,28.50
2022-08-11T10:18:55.682Z,28.40
2022-08-11T10:23:16.543Z,28.50
2022-08-11T10:27:18.858Z,28.60
2022-08-11T10:31:56.751Z,28.80
2022-08-11T10:36:00.287Z,28.70
2022-08-11T10:40:03.357Z,28.70
2022-08-11T10:44:06.579Z,28.90
2022-08-11T10:48:10.982Z,28.80
2022-08-11T10:52:35.636Z,28.90
2022-08-11T10:56:56.870Z,28.70
2022-08-11T11:01:00.876Z,29.00
2022-08-11T11:05:09.288Z,28.90
2022-08-11T11:09:16.946Z,29.00
2022-08-11T11:14:00.136Z,29.00
2022-08-11T11:18:14.201Z,29.00
2022-08-11T11:22:34.740Z,29.10
2022-08-11T11:26:56.907Z,29.20
2022-08-11T11:31:21.415Z,29.20
2022-08-11T11:35:50.755Z,29.30
2022-08-11T11:39:54.538Z,29.40
2022-08-11T11:43:57.315Z,29.20
2022-08-11T11:48:03.555Z,29.60
2022-08-11T11:52:06.754Z,29.70
2022-08-11T11:56:10.849Z,29.70
2022-08-11T12:00:33.224Z,29.70
2022-08-11T12:04:37.184Z,29.70
2022-08-11T12:08:38.907Z,29.90
2022-08-11T12:12:59.509Z,29.70
2022-08-11T12:17:01.189Z,29.20
2022-08-11T12:21:06.198Z,30.00
2022-08-11T12:25:26.555Z,30.00
2022-08-11T12:29:28.538Z,29.90
2022-08-11T12:33:30.243Z,30.00
2022-08-11T12:37:35.333Z,30.10
2022-08-11T12:41:56.530Z,29.90
2022-08-11T12:46:00.505Z,30.00
2022-08-11T12:50:23.668Z,30.30
2022-08-11T12:54:31.385Z,30.40
2022-08-11T12:58:33.060Z,29.90
2022-08-11T13:02:53.545Z,30.10
2022-08-11T13:06:55.406Z,29.80
2022-08-11T13:11:19.388Z,30.10
2022-08-11T13:15:29.662Z,30.40
2022-08-11T13:19:40.986Z,30.20
2022-08-11T13:23:43.032Z,30.20
2022-08-11T13:28:04.973Z,30.50
2022-08-11T13:32:06.990Z,30.40
2022-08-11T13:36:08.953Z,30.60
2022-08-11T13:40:11.263Z,30.40
2022-08-11T13:44:18.205Z,30.10
2022-08-11T13:48:24.163Z,30.40
2022-08-11T13:52:31.892Z,30.40
2022-08-11T13:56:35.126Z,30.60
2022-08-11T14:00:37.581Z,30.40
2022-08-11T14:04:59.891Z,30.10
2022-08-11T14:09:04.972Z,29.90
2022-08-11T14:13:42.237Z,30.10
2022-08-11T14:18:08.176Z,30.20
2022-08-11T14:22:13.470Z,30.10
2022-08-11T14:26:28.563Z,30.20
2022-08-11T14:30:49.049Z,30.30
2022-08-11T14:34:51.101Z,30.10
2022-08-11T14:38:54.010Z,30.10
2022-08-11T14:43:14.334Z,30.10
2022-08-11T14:47:24.884Z,29.90
2022-08-11T14:51:27.867Z,30.00
2022-08-11T14:55:48.852Z,30.10
2022-08-11T14:59:50.766Z,30.10
2022-08-11T15:04:34.249Z,30.20
2022-08-11T15:08:44.361Z,30.30
2022-08-11T15:12:46.733Z,30.00
2022-08-11T15:17:09.794Z,30.20
2022-08-11T15:21:34.021Z,30.10
2022-08-11T15:25:37.110Z,30.20
2022-08-11T15:29:58.256Z,30.30
2022-08-11T15:34:20.768Z,30.10
2022-08-11T15:38:23.446Z,30.10
2022-08-11T15:47:10.691Z,30.30
2022-08-11T15:51:30.440Z,30.30
2022-08-11T15:55:34.923Z,30.20
2022-08-11T15:59:57.521Z,30.40
2022-08-11T16:04:17.015Z,30.40
2022-08-11T16:08:32.566Z,30.50
2022-08-11T16:12:44.675Z,30.60
2022-08-11T16:16:47.227Z,30.60
2022-08-11T16:20:55.860Z,30.60
2022-08-11T16:27:05.883Z,30.50
2022-08-11T16:29:26.837Z,30.50
2022-08-11T16:33:49.492Z,30.90
2022-08-11T16:38:15.621Z,30.90
2022-08-11T16:43:05.263Z,30.70
2022-08-11T16:48:03.414Z,31.00
2022-08-11T16:52:22.729Z,30.70
2022-08-11T16:56:33.838Z,30.90
2022-08-11T17:00:36.733Z,31.00
2022-08-11T17:05:04.378Z,31.00
2022-08-11T17:09:29.813Z,31.10
2022-08-11T17:13:43.833Z,31.30
2022-08-11T17:17:46.387Z,31.30
2022-08-11T17:22:13.498Z,31.40
2022-08-11T17:26:55.525Z,31.50
2022-08-11T17:31:18.525Z,31.80
2022-08-11T17:35:31.640Z,32.10
2022-08-11T17:39:35.868Z,31.90
2022-08-11T17:43:56.441Z,31.50
2022-08-11T17:48:18.965Z,31.40
2022-08-11T17:52:40.777Z,31.60
2022-08-11T17:57:00.777Z,31.50
2022-08-11T18:01:08.912Z,31.40
2022-08-11T18:05:13.528Z,31.00
2022-08-11T18:09:35.156Z,30.60
2022-08-11T18:13:57.070Z,30.50
2022-08-11T18:18:19.682Z,30.10
2022-08-11T18:22:48.468Z,29.80
2022-08-11T18:27:09.909Z,29.60
2022-08-11T18:31:31.957Z,29.40
2022-08-11T18:35:56.255Z,29.20
2022-08-11T18:40:22.629Z,29.10
2022-08-11T18:44:48.789Z,28.90
2022-08-11T18:49:19.783Z,28.70
2022-08-11T18:53:47.019Z,28.50
2022-08-11T18:58:08.670Z,28.30
2022-08-11T19:02:32.684Z,28.20
2022-08-11T19:07:10.780Z,28.00
2022-08-11T19:11:31.977Z,27.80
2022-08-11T19:15:53.850Z,27.60
2022-08-11T19:20:16.118Z,27.30
2022-08-11T19:24:37.435Z,27.00
2022-08-11T19:28:58.551Z,27.00
2022-08-11T19:34:02.692Z,27.00
2022-08-11T19:38:08.739Z,26.50
2022-08-11T19:42:29.287Z,26.40
2022-08-11T19:46:51.971Z,25.60
2022-08-11T19:51:12.460Z,25.70
2022-08-11T19:55:33.101Z,25.50
2022-08-11T19:59:53.714Z,25.10
2022-08-11T20:04:13.982Z,24.90
2022-08-11T20:08:36.007Z,24.50
2022-08-11T20:12:57.087Z,24.20
2022-08-11T20:17:18.650Z,24.20
2022-08-11T20:21:40.285Z,24.00
2022-08-11T20:30:38.359Z,23.70
2022-08-11T20:34:59.607Z,23.60
2022-08-11T20:39:20.751Z,23.30
2022-08-11T20:44:07.130Z,23.40
2022-08-11T20:48:23.439Z,23.30
2022-08-11T20:52:48.048Z,23.00
2022-08-11T20:57:15.125Z,22.90
2022-08-11T21:01:38.521Z,22.90
2022-08-11T21:06:09.665Z,22.80
2022-08-11T21:10:31.505Z,22.60
2022-08-11T21:14:53.018Z,22.80
2022-08-11T21:19:15.883Z,22.80
2022-08-11T21:23:37.091Z,22.60
2022-08-11T21:27:58.843Z,22.50
2022-08-11T21:32:20.054Z,22.60
2022-08-11T21:36:40.874Z,22.60
2022-08-11T21:41:01.313Z,22.30
2022-08-11T21:45:22.505Z,22.10
2022-08-11T21:49:44.876Z,22.00
2022-08-11T21:54:05.751Z,21.80
2022-08-11T21:58:26.880Z,21.80
2022-08-11T22:02:49.079Z,21.70
2022-08-11T22:07:14.794Z,21.70
2022-08-11T22:11:35.578Z,21.60
2022-08-11T22:15:56.360Z,21.60
2022-08-11T22:20:17.328Z,21.40
2022-08-11T22:24:38.497Z,21.30
2022-08-11T22:28:59.203Z,21.50
2022-08-11T22:33:24.434Z,21.40
2022-08-11T22:37:47.969Z,21.10
2022-08-11T22:42:08.053Z,21.20
2022-08-11T22:46:29.188Z,20.90
2022-08-11T22:50:50.433Z,20.60
2022-08-11T22:55:11.060Z,20.80
2022-08-11T22:59:32.040Z,20.70
2022-08-11T23:03:52.798Z,20.40
2022-08-11T23:08:15.504Z,20.30
2022-08-11T23:12:35.461Z,20.10
2022-08-11T23:16:56.000Z,20.00
2022-08-11T23:21:17.742Z,20.00
2022-08-11T23:25:37.830Z,20.10
2022-08-11T23:29:59.104Z,20.00
2022-08-11T23:35:04.814Z,19.90
2022-08-11T23:39:01.405Z,20.10
2022-08-11T23:43:21.448Z,19.90
2022-08-11T23:47:50.374Z,19.70
2022-08-11T23:52:11.366Z,19.60
2022-08-11T23:56:32.143Z,19.60
